Terminal Aerodrome Forecast
Issued by NWS

Home | Current Version | Previous Version | Text Only | Print | Product List | Glossary On
Versions: 1 2 3 4 5 6 7 8 9 10 11 12 13 14 15 16
000
FTUS43 KMQT 222320
TAFSAW
TAF
KSAW 222320Z 2300/2324 28003KT P6SM BKN050
     FM230500 25003KT 5SM BR BKN070
     FM230800 27003KT 2SM BR SCT060
     FM230900 27003KT 1SM BR SCT050
     FM231400 01003KT P6SM BKN045
     FM231700 03007KT P6SM BKN050=

USA.gov is the U.S. government's official web portal to all federal, state and local government web resources and services.